Kezdőlap
METAR-TAF:

METAR-TAF

Repülőterek :

Baza 71 Aeriană

Aranyosgyéres, Románia

földrajzi szélesség: 46-30-12N, földrajzi hosszúság: 023-53-07E, magasság: 324 m

Jelenlegi meteorológiai megfigyelések

A jelentés 26 perccel ezelõtt készült, 21:00 UTC
Észak-északkeleti szél 3 kt
Hőmérséklet 17°C
Páratartalom 77%
Légköri nyomás 1021 hPa
Látótávolság 10 km, vagy több
Szakadozott felhőzet 12000 lábon

METAR: LRCT 272100Z 03003KT 9999 BKN120 17/13 Q1021 BLU BLU

Idő: 00:26 (21:26 UTC)


TAF: hiányzik

Meteorológiai megfigyelések és előrejelzések több, mint 4000 repülőtéren (METAR és TAF jelentéseket).

A térképen piros és sárga pontok jelzik az elérhető meteorológiai állomásokat.

Mozgassa az egeret a pont fölött, hogy megjelenjen az állomás neve.

Azután kattintson az időjárási megfigyelések és előrejelzések megtekintéséhez.

A térkép megváltoztatása: kattintson a fekete keresztel jelölt zöld gombra ráközelítéshez, a vonallal jelölt zöld gombra távolításhoz, vagy a zöld nyilakra a szomszédos térképek eléréséhez.


METAR-TAF: